Startpagina
METAR-TAF:

METAR-TAF

Vliegvelden :

Luchthaven Riga

Riga, Letland

breedte: 56-55N, lengte: 023-58E, hoogte: 10 m

Actueel weer

Dit bericht is 24 minuten geleden gemaakt, om 08:20 UTC
Wind 11 kt uit het oosten
Temperatuur 28°C
Vochtigheid 42%
Druk 1009 hPa
Zicht 10 km of meer
geen wolken onder 1500 m en geen cumulonimbus

METAR: EVRA 180820Z 08011KT CAVOK 28/14 Q1009 NOSIG

Tijdstip: 11:44 (08:44 UTC)

Verwachting

Dit bericht is 44 minuten geleden gemaakt, om 08:00 UTC
Verwachting geldig van 18 om 09 UTC tot 19 om 09 UTC
Wind 9 kt uit het noordnoordoosten
Zicht 10 km of meer
geen wolken onder 1500 m en geen cumulonimbus
Tijdelijke
van 18 om 09 UTC tot 18 om 15 UTC
Wind 12 kt uit het noordnoordoosten met uitschieters tot 25 kt
Wijzigt naar
van 18 om 19 UTC tot 18 om 21 UTC
Wind 2 kt uit variabele richting
Wijzigt naar
van 19 om 06 UTC tot 19 om 08 UTC
Wind 7 kt uit het noorden

TAF: EVRA 180800Z 1809/1909 03009KT CAVOK TEMPO 1809/1815 02012G25KT BECMG 1819/1821 VRB02KT BECMG 1906/1908 36007KT

Waarnemingen en weersverwachtingen van meer dan 4000 vliegvelden (METAR en TAF).

De beschikbare stations zijn de gele en rode punten op de kaart.

Ga met uw muis naar het station om de naam te zien.

Klik dan om waarnemingen en weersverwachtingen te zien.

kaart wijzigen: klik op de groene knoppen met een zwart kruis om in te zoomen, op de groene knop met een streepje om uit te zoomen of op de groene pijlen voor aangrenzende kaarten.


METAR-TAF: